sensor_id;sensor_type;location;lat;lon;timestamp;pressure;altitude;pressure_sealevel;temperature;humidity
22830;BME280;11581;51.250;6.778;2023-01-27T00:00:47;101883.03;;;7.57;68.46
22830;BME280;11581;51.250;6.778;2023-01-27T00:03:15;101872.63;;;7.54;68.55
22830;BME280;11581;51.250;6.778;2023-01-27T00:05:42;101815.81;;;7.17;68.26
22830;BME280;11581;51.250;6.778;2023-01-27T00:08:09;101884.75;;;7.58;68.16
22830;BME280;11581;51.250;6.778;2023-01-27T00:10:37;101884.94;;;7.55;67.96
22830;BME280;11581;51.250;6.778;2023-01-27T00:13:04;101869.66;;;7.46;68.43
22830;BME280;11581;51.250;6.778;2023-01-27T00:15:48;101884.94;;;7.55;68.24
22830;BME280;11581;51.250;6.778;2023-01-27T00:18:15;101892.91;;;7.55;68.52
22830;BME280;11581;51.250;6.778;2023-01-27T00:20:41;101887.59;;;7.55;68.42
22830;BME280;11581;51.250;6.778;2023-01-27T00:23:26;101894.53;;;7.57;67.76
22830;BME280;11581;51.250;6.778;2023-01-27T00:26:23;101895.25;;;7.59;68.59
22830;BME280;11581;51.250;6.778;2023-01-27T00:28:49;101897.81;;;7.61;68.66
22830;BME280;11581;51.250;6.778;2023-01-27T00:31:17;101885.41;;;7.61;68.80
22830;BME280;11581;51.250;6.778;2023-01-27T00:34:01;101857.69;;;7.39;68.52
22830;BME280;11581;51.250;6.778;2023-01-27T00:36:34;101901.22;;;7.63;68.57
22830;BME280;11581;51.250;6.778;2023-01-27T00:39:03;101896.66;;;7.65;68.84
22830;BME280;11581;51.250;6.778;2023-01-27T00:41:31;101893.06;;;7.66;68.48
22830;BME280;11581;51.250;6.778;2023-01-27T00:43:58;101889.44;;;7.67;68.74
22830;BME280;11581;51.250;6.778;2023-01-27T00:46:25;101898.19;;;7.69;69.11
22830;BME280;11581;51.250;6.778;2023-01-27T00:48:52;101904.22;;;7.71;69.10
22830;BME280;11581;51.250;6.778;2023-01-27T00:51:19;101819.22;;;7.19;69.09
22830;BME280;11581;51.250;6.778;2023-01-27T00:53:46;101897.13;;;7.71;68.84
22830;BME280;11581;51.250;6.778;2023-01-27T00:56:15;101905.84;;;7.73;69.07
22830;BME280;11581;51.250;6.778;2023-01-27T00:58:44;101902.63;;;7.68;68.97
22830;BME280;11581;51.250;6.778;2023-01-27T01:01:12;101903.69;;;7.66;68.93
22830;BME280;11581;51.250;6.778;2023-01-27T01:03:39;101914.44;;;7.77;68.95
22830;BME280;11581;51.250;6.778;2023-01-27T01:06:09;101909.88;;;7.79;68.61
22830;BME280;11581;51.250;6.778;2023-01-27T01:08:37;101913.19;;;7.82;68.71
22830;BME280;11581;51.250;6.778;2023-01-27T01:11:04;101914.03;;;7.83;68.56
22830;BME280;11581;51.250;6.778;2023-01-27T01:13:31;101913.94;;;7.84;68.68
22830;BME280;11581;51.250;6.778;2023-01-27T01:16:05;101923.59;;;7.85;67.86
22830;BME280;11581;51.250;6.778;2023-01-27T01:18:32;101915.72;;;7.84;68.57
22830;BME280;11581;51.250;6.778;2023-01-27T01:20:59;101914.09;;;7.69;68.44
22830;BME280;11581;51.250;6.778;2023-01-27T01:23:26;101917.66;;;7.82;68.21
22830;BME280;11581;51.250;6.778;2023-01-27T01:25:55;101931.47;;;7.87;68.16
22830;BME280;11581;51.250;6.778;2023-01-27T01:28:22;101927.13;;;7.86;68.04
22830;BME280;11581;51.250;6.778;2023-01-27T01:30:49;101934.13;;;7.87;67.66
22830;BME280;11581;51.250;6.778;2023-01-27T01:33:17;101935.09;;;7.86;67.79
22830;BME280;11581;51.250;6.778;2023-01-27T01:35:44;101930.72;;;7.85;67.77
22830;BME280;11581;51.250;6.778;2023-01-27T01:38:10;101931.13;;;7.79;67.89
22830;BME280;11581;51.250;6.778;2023-01-27T01:40:41;101928.59;;;7.77;67.35
22830;BME280;11581;51.250;6.778;2023-01-27T01:43:13;101943.25;;;7.83;67.15
22830;BME280;11581;51.250;6.778;2023-01-27T01:45:52;101947.06;;;7.79;67.08
22830;BME280;11581;51.250;6.778;2023-01-27T01:48:24;101943.25;;;7.83;67.00
22830;BME280;11581;51.250;6.778;2023-01-27T01:50:56;101945.91;;;7.83;66.99
22830;BME280;11581;51.250;6.778;2023-01-27T01:53:26;101940.16;;;7.76;67.44
22830;BME280;11581;51.250;6.778;2023-01-27T01:55:56;101910.03;;;7.63;67.36
22830;BME280;11581;51.250;6.778;2023-01-27T01:58:24;101933.78;;;7.79;67.52
22830;BME280;11581;51.250;6.778;2023-01-27T02:00:53;101919.41;;;7.69;67.90
22830;BME280;11581;51.250;6.778;2023-01-27T02:03:19;101942.69;;;7.78;67.87
22830;BME280;11581;51.250;6.778;2023-01-27T02:05:48;101936.94;;;7.71;67.51
22830;BME280;11581;51.250;6.778;2023-01-27T02:08:18;101931.19;;;7.65;67.33
22830;BME280;11581;51.250;6.778;2023-01-27T02:10:46;101941.28;;;7.72;67.80
22830;BME280;11581;51.250;6.778;2023-01-27T02:13:14;101952.03;;;7.71;67.60
22830;BME280;11581;51.250;6.778;2023-01-27T02:15:41;101897.63;;;7.37;67.34
22830;BME280;11581;51.250;6.778;2023-01-27T02:18:07;101937.25;;;7.67;67.63
22830;BME280;11581;51.250;6.778;2023-01-27T02:20:38;101947.97;;;7.65;67.46
22830;BME280;11581;51.250;6.778;2023-01-27T02:23:20;101909.09;;;7.38;66.74
22830;BME280;11581;51.250;6.778;2023-01-27T02:25:57;101951.50;;;7.66;67.61
22830;BME280;11581;51.250;6.778;2023-01-27T02:28:26;101950.63;;;7.65;67.95
22830;BME280;11581;51.250;6.778;2023-01-27T02:30:54;101905.47;;;7.39;68.13
22830;BME280;11581;51.250;6.778;2023-01-27T02:33:21;101958.59;;;7.65;67.81
22830;BME280;11581;51.250;6.778;2023-01-27T02:35:53;101948.25;;;7.61;67.25
22830;BME280;11581;51.250;6.778;2023-01-27T02:38:23;101963.91;;;7.65;67.76
22830;BME280;11581;51.250;6.778;2023-01-27T02:40:55;101968.44;;;7.63;66.98
22830;BME280;11581;51.250;6.778;2023-01-27T02:43:23;101969.50;;;7.61;67.44
22830;BME280;11581;51.250;6.778;2023-01-27T02:45:49;101966.22;;;7.57;67.42
22830;BME280;11581;51.250;6.778;2023-01-27T02:48:16;101964.97;;;7.49;67.48
22830;BME280;11581;51.250;6.778;2023-01-27T02:50:43;101967.53;;;7.50;67.02
22830;BME280;11581;51.250;6.778;2023-01-27T02:53:10;101972.22;;;7.47;66.93
22830;BME280;11581;51.250;6.778;2023-01-27T02:55:36;101982.34;;;7.40;66.79
22830;BME280;11581;51.250;6.778;2023-01-27T02:58:04;101992.34;;;7.37;66.91
22830;BME280;11581;51.250;6.778;2023-01-27T03:00:50;101985.53;;;7.33;66.77
22830;BME280;11581;51.250;6.778;2023-01-27T03:03:17;101983.16;;;7.28;66.51
22830;BME280;11581;51.250;6.778;2023-01-27T03:05:45;101982.56;;;7.23;66.36
22830;BME280;11581;51.250;6.778;2023-01-27T03:08:12;101982.88;;;7.19;66.77
22830;BME280;11581;51.250;6.778;2023-01-27T03:10:40;101970.00;;;6.99;66.75
22830;BME280;11581;51.250;6.778;2023-01-27T03:13:08;101992.34;;;7.09;66.49
22830;BME280;11581;51.250;6.778;2023-01-27T03:15:38;101950.41;;;6.87;66.96
22830;BME280;11581;51.250;6.778;2023-01-27T03:18:22;101980.63;;;6.99;67.08
22830;BME280;11581;51.250;6.778;2023-01-27T03:20:48;101994.56;;;7.02;67.15
22830;BME280;11581;51.250;6.778;2023-01-27T03:23:17;101969.59;;;6.90;66.79
22830;BME280;11581;51.250;6.778;2023-01-27T03:25:48;101984.03;;;7.01;67.25
22830;BME280;11581;51.250;6.778;2023-01-27T03:28:16;101979.66;;;7.00;67.16
22830;BME280;11581;51.250;6.778;2023-01-27T03:30:59;101985.81;;;7.00;67.12
22830;BME280;11581;51.250;6.778;2023-01-27T03:33:33;101991.22;;;6.99;67.61
22830;BME280;11581;51.250;6.778;2023-01-27T03:36:07;101954.38;;;6.80;67.58
22830;BME280;11581;51.250;6.778;2023-01-27T03:38:52;101990.25;;;7.00;67.62
22830;BME280;11581;51.250;6.778;2023-01-27T03:41:36;101998.22;;;7.00;67.67
22830;BME280;11581;51.250;6.778;2023-01-27T03:44:25;101984.50;;;6.93;67.72
22830;BME280;11581;51.250;6.778;2023-01-27T03:47:10;101984.88;;;7.01;68.15
22830;BME280;11581;51.250;6.778;2023-01-27T03:49:36;101992.81;;;7.01;68.04
22830;BME280;11581;51.250;6.778;2023-01-27T03:52:03;101958.81;;;6.79;68.01
22830;BME280;11581;51.250;6.778;2023-01-27T03:54:30;101998.03;;;7.03;67.86
22830;BME280;11581;51.250;6.778;2023-01-27T03:56:56;101974.00;;;6.92;67.99
22830;BME280;11581;51.250;6.778;2023-01-27T03:59:33;101996.53;;;6.99;67.94
22830;BME280;11581;51.250;6.778;2023-01-27T04:02:00;101987.81;;;6.97;67.86
22830;BME280;11581;51.250;6.778;2023-01-27T04:04:43;101982.59;;;6.95;67.79
22830;BME280;11581;51.250;6.778;2023-01-27T04:07:28;101988.75;;;6.96;68.05
22830;BME280;11581;51.250;6.778;2023-01-27T04:09:54;101974.38;;;6.85;68.19
22830;BME280;11581;51.250;6.778;2023-01-27T04:12:21;101984.19;;;6.83;68.06
22830;BME280;11581;51.250;6.778;2023-01-27T04:14:49;101990.28;;;6.85;68.20
22830;BME280;11581;51.250;6.778;2023-01-27T04:17:18;101991.22;;;6.84;68.64
22830;BME280;11581;51.250;6.778;2023-01-27T04:19:45;101998.69;;;6.78;68.98
22830;BME280;11581;51.250;6.778;2023-01-27T04:22:14;101995.75;;;6.82;68.44
22830;BME280;11581;51.250;6.778;2023-01-27T04:24:41;101994.91;;;6.82;68.75
22830;BME280;11581;51.250;6.778;2023-01-27T04:27:10;102000.38;;;6.79;68.76
22830;BME280;11581;51.250;6.778;2023-01-27T04:29:39;102013.75;;;6.77;68.88
22830;BME280;11581;51.250;6.778;2023-01-27T04:32:09;102012.03;;;6.76;69.14
22830;BME280;11581;51.250;6.778;2023-01-27T04:34:36;101935.13;;;6.34;69.17
22830;BME280;11581;51.250;6.778;2023-01-27T04:37:04;101994.44;;;6.75;69.46
22830;BME280;11581;51.250;6.778;2023-01-27T04:39:31;102006.94;;;6.73;69.59
22830;BME280;11581;51.250;6.778;2023-01-27T04:41:58;102009.19;;;6.65;69.58
22830;BME280;11581;51.250;6.778;2023-01-27T04:44:25;102004.81;;;6.64;69.34
22830;BME280;11581;51.250;6.778;2023-01-27T04:46:52;102005.09;;;6.60;69.35
22830;BME280;11581;51.250;6.778;2023-01-27T04:49:21;102003.31;;;6.60;69.85
22830;BME280;11581;51.250;6.778;2023-01-27T04:51:47;102004.44;;;6.56;69.80
22830;BME280;11581;51.250;6.778;2023-01-27T04:54:14;101679.00;;;4.62;69.55
22830;BME280;11581;51.250;6.778;2023-01-27T04:56:52;102006.69;;;6.48;69.97
22830;BME280;11581;51.250;6.778;2023-01-27T04:59:19;102009.94;;;6.53;69.95
22830;BME280;11581;51.250;6.778;2023-01-27T05:01:45;102002.44;;;6.46;70.36
22830;BME280;11581;51.250;6.778;2023-01-27T05:04:12;102029.16;;;6.57;70.64
22830;BME280;11581;51.250;6.778;2023-01-27T05:06:40;102015.91;;;6.57;70.70
22830;BME280;11581;51.250;6.778;2023-01-27T05:09:07;102009.94;;;6.53;70.66
22830;BME280;11581;51.250;6.778;2023-01-27T05:11:33;102021.88;;;6.60;70.71
22830;BME280;11581;51.250;6.778;2023-01-27T05:14:00;102017.44;;;6.61;70.78
22830;BME280;11581;51.250;6.778;2023-01-27T05:16:26;102025.28;;;6.62;71.05
22830;BME280;11581;51.250;6.778;2023-01-27T05:18:53;102023.38;;;6.64;71.02
22830;BME280;11581;51.250;6.778;2023-01-27T05:21:22;102033.81;;;6.67;70.99
22830;BME280;11581;51.250;6.778;2023-01-27T05:23:50;102025.75;;;6.69;70.80
22830;BME280;11581;51.250;6.778;2023-01-27T05:26:19;102023.03;;;6.70;70.96
22830;BME280;11581;51.250;6.778;2023-01-27T05:28:47;102015.69;;;6.60;71.31
22830;BME280;11581;51.250;6.778;2023-01-27T05:31:16;102030.88;;;6.72;71.12
22830;BME280;11581;51.250;6.778;2023-01-27T05:33:43;102044.03;;;6.73;71.16
22830;BME280;11581;51.250;6.778;2023-01-27T05:36:12;101958.19;;;6.32;71.25
22830;BME280;11581;51.250;6.778;2023-01-27T05:38:39;102037.69;;;6.76;71.30
22830;BME280;11581;51.250;6.778;2023-01-27T05:41:09;102020.72;;;6.64;71.19
22830;BME280;11581;51.250;6.778;2023-01-27T05:43:37;102039.34;;;6.78;71.40
22830;BME280;11581;51.250;6.778;2023-01-27T05:46:05;102035.72;;;6.79;71.36
22830;BME280;11581;51.250;6.778;2023-01-27T05:48:33;102048.81;;;6.82;71.32
22830;BME280;11581;51.250;6.778;2023-01-27T05:51:01;102044.38;;;6.83;71.34
22830;BME280;11581;51.250;6.778;2023-01-27T05:53:28;102039.25;;;6.80;71.31
22830;BME280;11581;51.250;6.778;2023-01-27T05:55:54;102042.34;;;6.86;71.42
22830;BME280;11581;51.250;6.778;2023-01-27T05:58:23;102046.53;;;6.90;71.66
22830;BME280;11581;51.250;6.778;2023-01-27T06:00:50;102044.66;;;6.93;71.32
22830;BME280;11581;51.250;6.778;2023-01-27T06:03:17;102053.38;;;6.95;71.78
22830;BME280;11581;51.250;6.778;2023-01-27T06:05:55;102048.81;;;6.97;71.23
22830;BME280;11581;51.250;6.778;2023-01-27T06:08:24;102045.97;;;7.00;71.53
22830;BME280;11581;51.250;6.778;2023-01-27T06:10:51;102045.88;;;7.01;71.62
22830;BME280;11581;51.250;6.778;2023-01-27T06:13:22;102040.47;;;7.03;71.26
22830;BME280;11581;51.250;6.778;2023-01-27T06:15:50;102045.69;;;7.04;71.66
22830;BME280;11581;51.250;6.778;2023-01-27T06:18:17;102050.91;;;7.06;71.50
22830;BME280;11581;51.250;6.778;2023-01-27T06:20:45;102049.03;;;7.08;71.25
22830;BME280;11581;51.250;6.778;2023-01-27T06:23:13;102049.84;;;7.08;71.49
22830;BME280;11581;51.250;6.778;2023-01-27T06:25:42;102042.84;;;7.07;71.07
22830;BME280;11581;51.250;6.778;2023-01-27T06:28:09;102061.16;;;7.12;71.37
22830;BME280;11581;51.250;6.778;2023-01-27T06:30:38;102053.97;;;7.14;71.12
22830;BME280;11581;51.250;6.778;2023-01-27T06:33:06;102058.31;;;7.15;71.25
22830;BME280;11581;51.250;6.778;2023-01-27T06:35:34;102073.09;;;7.19;71.14
22830;BME280;11581;51.250;6.778;2023-01-27T06:38:02;102069.47;;;7.20;71.11
22830;BME280;11581;51.250;6.778;2023-01-27T06:40:30;102071.00;;;7.24;71.00
22830;BME280;11581;51.250;6.778;2023-01-27T06:42:57;102077.06;;;7.26;71.33
22830;BME280;11581;51.250;6.778;2023-01-27T06:45:25;102075.09;;;7.29;71.19
22830;BME280;11581;51.250;6.778;2023-01-27T06:47:57;102078.50;;;7.31;71.00
22830;BME280;11581;51.250;6.778;2023-01-27T06:50:25;102077.47;;;7.34;71.26
22830;BME280;11581;51.250;6.778;2023-01-27T06:52:58;102084.38;;;7.36;71.05
22830;BME280;11581;51.250;6.778;2023-01-27T06:55:25;102081.63;;;7.38;71.17
22830;BME280;11581;51.250;6.778;2023-01-27T06:57:51;102093.00;;;7.40;70.88
22830;BME280;11581;51.250;6.778;2023-01-27T07:00:19;102088.44;;;7.42;71.38
22830;BME280;11581;51.250;6.778;2023-01-27T07:02:46;102087.50;;;7.43;72.00
22830;BME280;11581;51.250;6.778;2023-01-27T07:05:14;102088.84;;;7.50;73.03
22830;BME280;11581;51.250;6.778;2023-01-27T07:07:41;102091.00;;;7.57;73.20
22830;BME280;11581;51.250;6.778;2023-01-27T07:10:09;102089.56;;;7.66;72.54
22830;BME280;11581;51.250;6.778;2023-01-27T07:12:35;102077.03;;;7.68;71.96
22830;BME280;11581;51.250;6.778;2023-01-27T07:15:03;102090.50;;;7.79;71.40
22830;BME280;11581;51.250;6.778;2023-01-27T07:17:30;102074.28;;;7.69;70.68
22830;BME280;11581;51.250;6.778;2023-01-27T07:19:57;102096.16;;;7.87;70.50
22830;BME280;11581;51.250;6.778;2023-01-27T07:22:25;102089.06;;;7.87;70.12
22830;BME280;11581;51.250;6.778;2023-01-27T07:24:52;102103.94;;;7.90;70.24
22830;BME280;11581;51.250;6.778;2023-01-27T07:27:20;102103.94;;;7.90;69.98
22830;BME280;11581;51.250;6.778;2023-01-27T07:29:46;102104.81;;;7.90;69.58
22830;BME280;11581;51.250;6.778;2023-01-27T07:32:13;102105.66;;;7.91;69.45
22830;BME280;11581;51.250;6.778;2023-01-27T07:34:40;102100.34;;;7.91;69.47
22830;BME280;11581;51.250;6.778;2023-01-27T07:37:06;102110.97;;;7.91;69.61
22830;BME280;11581;51.250;6.778;2023-01-27T07:39:34;102103.94;;;7.90;69.19
22830;BME280;11581;51.250;6.778;2023-01-27T07:42:02;102092.19;;;7.80;69.46
22830;BME280;11581;51.250;6.778;2023-01-27T07:44:28;102102.81;;;7.80;69.57
22830;BME280;11581;51.250;6.778;2023-01-27T07:46:57;102114.84;;;7.85;69.63
22830;BME280;11581;51.250;6.778;2023-01-27T07:49:24;102108.13;;;7.80;69.99
22830;BME280;11581;51.250;6.778;2023-01-27T07:51:51;102114.94;;;7.84;69.65
22830;BME280;11581;51.250;6.778;2023-01-27T07:54:18;102114.94;;;7.84;70.01
22830;BME280;11581;51.250;6.778;2023-01-27T07:56:46;102108.81;;;7.83;69.85
22830;BME280;11581;51.250;6.778;2023-01-27T07:59:13;102115.91;;;7.83;69.98
22830;BME280;11581;51.250;6.778;2023-01-27T08:01:40;102109.28;;;7.76;70.14
22830;BME280;11581;51.250;6.778;2023-01-27T08:04:07;102103.97;;;7.76;69.97
22830;BME280;11581;51.250;6.778;2023-01-27T08:06:36;102120.06;;;7.87;69.86
22830;BME280;11581;51.250;6.778;2023-01-27T08:09:03;102112.88;;;7.89;70.16
22830;BME280;11581;51.250;6.778;2023-01-27T08:11:30;102121.59;;;7.91;70.21
22830;BME280;11581;51.250;6.778;2023-01-27T08:13:59;102125.00;;;7.93;69.89
22830;BME280;11581;51.250;6.778;2023-01-27T08:16:25;101971.31;;;7.06;70.00
22830;BME280;11581;51.250;6.778;2023-01-27T08:18:52;102089.00;;;7.75;70.01
22830;BME280;11581;51.250;6.778;2023-01-27T08:21:20;102122.91;;;7.98;70.01
22830;BME280;11581;51.250;6.778;2023-01-27T08:23:46;102128.97;;;8.00;69.91
22830;BME280;11581;51.250;6.778;2023-01-27T08:26:13;102123.44;;;8.03;70.19
22830;BME280;11581;51.250;6.778;2023-01-27T08:28:40;102128.47;;;8.07;70.36
22830;BME280;11581;51.250;6.778;2023-01-27T08:31:10;102117.66;;;8.10;69.53
22830;BME280;11581;51.250;6.778;2023-01-27T08:33:38;102108.09;;;8.08;69.75
22830;BME280;11581;51.250;6.778;2023-01-27T08:36:07;102018.25;;;7.60;69.91
22830;BME280;11581;51.250;6.778;2023-01-27T08:38:35;102115.38;;;8.18;69.70
22830;BME280;11581;51.250;6.778;2023-01-27T08:41:04;102121.50;;;8.19;69.75
22830;BME280;11581;51.250;6.778;2023-01-27T08:43:30;102117.78;;;8.21;69.80
22830;BME280;11581;51.250;6.778;2023-01-27T08:45:58;102124.78;;;8.24;69.77
22830;BME280;11581;51.250;6.778;2023-01-27T08:48:26;102117.72;;;8.23;69.80
22830;BME280;11581;51.250;6.778;2023-01-27T08:50:53;102126.84;;;8.33;69.66
22830;BME280;11581;51.250;6.778;2023-01-27T08:53:21;102130.03;;;8.38;69.78
22830;BME280;11581;51.250;6.778;2023-01-27T08:55:47;102104.34;;;8.24;69.48
22830;BME280;11581;51.250;6.778;2023-01-27T08:58:14;102120.69;;;8.45;69.65
22830;BME280;11581;51.250;6.778;2023-01-27T09:00:41;102117.31;;;8.43;69.58
22830;BME280;11581;51.250;6.778;2023-01-27T09:03:08;102129.03;;;8.53;69.41
22830;BME280;11581;51.250;6.778;2023-01-27T09:05:36;102117.72;;;8.49;69.16
22830;BME280;11581;51.250;6.778;2023-01-27T09:08:03;102137.44;;;8.59;69.41
22830;BME280;11581;51.250;6.778;2023-01-27T09:10:31;102130.88;;;8.65;69.14
22830;BME280;11581;51.250;6.778;2023-01-27T09:12:57;102044.53;;;8.17;69.03
22830;BME280;11581;51.250;6.778;2023-01-27T09:15:24;102141.09;;;8.71;69.39
22830;BME280;11581;51.250;6.778;2023-01-27T09:17:50;102148.13;;;8.72;69.08
22830;BME280;11581;51.250;6.778;2023-01-27T09:20:17;102084.72;;;8.27;68.83
22830;BME280;11581;51.250;6.778;2023-01-27T09:22:45;102151.13;;;8.80;68.77
22830;BME280;11581;51.250;6.778;2023-01-27T09:25:14;102127.47;;;8.63;68.45
22830;BME280;11581;51.250;6.778;2023-01-27T09:27:41;102127.88;;;8.57;68.27
22830;BME280;11581;51.250;6.778;2023-01-27T09:30:09;102149.28;;;8.68;68.36
22830;BME280;11581;51.250;6.778;2023-01-27T09:32:36;102168.38;;;8.87;68.54
22830;BME280;11581;51.250;6.778;2023-01-27T09:35:03;102164.78;;;8.88;68.39
22830;BME280;11581;51.250;6.778;2023-01-27T09:37:31;102145.19;;;8.76;68.22
22830;BME280;11581;51.250;6.778;2023-01-27T09:40:01;102165.50;;;8.90;68.16
22830;BME280;11581;51.250;6.778;2023-01-27T09:42:45;102156.25;;;8.83;67.62
22830;BME280;11581;51.250;6.778;2023-01-27T09:45:47;102173.28;;;8.93;67.20
22830;BME280;11581;51.250;6.778;2023-01-27T09:48:33;102168.84;;;8.93;67.58
22830;BME280;11581;51.250;6.778;2023-01-27T09:51:09;102171.41;;;8.95;68.03
22830;BME280;11581;51.250;6.778;2023-01-27T09:56:45;102179.28;;;8.96;67.92
22830;BME280;11581;51.250;6.778;2023-01-27T09:59:38;102148.38;;;8.81;67.16
22830;BME280;11581;51.250;6.778;2023-01-27T10:02:17;102180.75;;;9.00;67.70
22830;BME280;11581;51.250;6.778;2023-01-27T10:05:03;102170.97;;;9.01;67.08
22830;BME280;11581;51.250;6.778;2023-01-27T10:07:48;102106.63;;;8.69;66.89
22830;BME280;11581;51.250;6.778;2023-01-27T10:10:29;102126.44;;;8.78;67.33
22830;BME280;11581;51.250;6.778;2023-01-27T10:13:12;102169.72;;;9.06;67.71
22830;BME280;11581;51.250;6.778;2023-01-27T10:15:50;102177.38;;;9.11;68.09
22830;BME280;11581;51.250;6.778;2023-01-27T10:18:30;102174.41;;;9.16;67.77
22830;BME280;11581;51.250;6.778;2023-01-27T10:21:07;102151.94;;;9.07;67.79
22830;BME280;11581;51.250;6.778;2023-01-27T10:23:49;102179.31;;;9.22;67.02
22830;BME280;11581;51.250;6.778;2023-01-27T10:26:23;102171.25;;;9.23;67.83
22830;BME280;11581;51.250;6.778;2023-01-27T10:29:02;102172.81;;;9.26;67.42
22830;BME280;11581;51.250;6.778;2023-01-27T10:31:35;102174.41;;;9.28;67.91
22830;BME280;11581;51.250;6.778;2023-01-27T10:34:07;102165.66;;;9.26;67.83
22830;BME280;11581;51.250;6.778;2023-01-27T10:36:45;102168.47;;;9.37;68.38
22830;BME280;11581;51.250;6.778;2023-01-27T10:39:20;102177.63;;;9.46;68.28
22830;BME280;11581;51.250;6.778;2023-01-27T10:41:58;102156.09;;;9.49;67.87
22830;BME280;11581;51.250;6.778;2023-01-27T10:44:41;102161.41;;;9.61;67.60
22830;BME280;11581;51.250;6.778;2023-01-27T10:47:15;102149.28;;;9.57;67.44
22830;BME280;11581;51.250;6.778;2023-01-27T10:49:48;102164.41;;;9.69;67.16
22830;BME280;11581;51.250;6.778;2023-01-27T10:52:18;102169.63;;;9.71;67.29
22830;BME280;11581;51.250;6.778;2023-01-27T10:54:49;102169.63;;;9.71;67.43
22830;BME280;11581;51.250;6.778;2023-01-27T10:57:20;102169.53;;;9.72;67.33
22830;BME280;11581;51.250;6.778;2023-01-27T10:59:55;102167.59;;;9.74;67.21
22830;BME280;11581;51.250;6.778;2023-01-27T11:02:30;102155.03;;;9.76;66.72
22830;BME280;11581;51.250;6.778;2023-01-27T11:05:01;102166.31;;;9.80;67.67
22830;BME280;11581;51.250;6.778;2023-01-27T11:07:31;102161.63;;;9.83;67.33
22830;BME280;11581;51.250;6.778;2023-01-27T11:10:03;102157.16;;;9.84;66.82
22830;BME280;11581;51.250;6.778;2023-01-27T11:12:34;102163.31;;;9.84;66.70
22830;BME280;11581;51.250;6.778;2023-01-27T11:15:15;102134.34;;;9.80;65.56
22830;BME280;11581;51.250;6.778;2023-01-27T11:17:46;102136.75;;;9.83;66.27
22830;BME280;11581;51.250;6.778;2023-01-27T11:20:25;102125.28;;;9.82;65.78
22830;BME280;11581;51.250;6.778;2023-01-27T11:22:55;102077.69;;;9.53;66.71
22830;BME280;11581;51.250;6.778;2023-01-27T11:25:26;102125.28;;;9.82;66.75
22830;BME280;11581;51.250;6.778;2023-01-27T11:28:01;102134.09;;;9.83;66.26
22830;BME280;11581;51.250;6.778;2023-01-27T11:30:36;102127.72;;;9.85;66.11
22830;BME280;11581;51.250;6.778;2023-01-27T11:33:12;102118.03;;;9.72;66.15
22830;BME280;11581;51.250;6.778;2023-01-27T11:35:43;102125.06;;;9.85;67.16
22830;BME280;11581;51.250;6.778;2023-01-27T11:38:13;102110.47;;;9.78;66.50
22830;BME280;11581;51.250;6.778;2023-01-27T11:40:43;102135.69;;;9.98;66.92
22830;BME280;11581;51.250;6.778;2023-01-27T11:43:14;102139.81;;;10.02;66.33
22830;BME280;11581;51.250;6.778;2023-01-27T11:45:42;102085.97;;;9.73;66.51
22830;BME280;11581;51.250;6.778;2023-01-27T11:48:12;102142.84;;;10.10;66.63
22830;BME280;11581;51.250;6.778;2023-01-27T11:50:41;102138.97;;;10.14;66.69
22830;BME280;11581;51.250;6.778;2023-01-27T11:53:12;102117.88;;;9.98;65.77
22830;BME280;11581;51.250;6.778;2023-01-27T11:55:42;102127.91;;;10.07;65.54
22830;BME280;11581;51.250;6.778;2023-01-27T11:58:16;102144.72;;;10.20;64.92
22830;BME280;11581;51.250;6.778;2023-01-27T12:00:47;102150.06;;;10.20;64.94
22830;BME280;11581;51.250;6.778;2023-01-27T12:03:18;102149.19;;;10.20;65.33
22830;BME280;11581;51.250;6.778;2023-01-27T12:05:48;102151.00;;;10.19;65.35
22830;BME280;11581;51.250;6.778;2023-01-27T12:08:35;102140.56;;;10.16;64.49
22830;BME280;11581;51.250;6.778;2023-01-27T12:11:16;102142.38;;;10.16;64.21
22830;BME280;11581;51.250;6.778;2023-01-27T12:13:48;102143.44;;;10.13;64.59
22830;BME280;11581;51.250;6.778;2023-01-27T12:16:16;102131.31;;;10.09;64.91
22830;BME280;11581;51.250;6.778;2023-01-27T12:18:50;102128.09;;;10.04;64.26
22830;BME280;11581;51.250;6.778;2023-01-27T12:21:18;102137.25;;;10.00;65.24
22830;BME280;11581;51.250;6.778;2023-01-27T12:23:48;102126.97;;;9.96;64.91
22830;BME280;11581;51.250;6.778;2023-01-27T12:26:28;102130.06;;;9.90;64.52
22830;BME280;11581;51.250;6.778;2023-01-27T12:28:57;102131.13;;;9.87;64.98
22830;BME280;11581;51.250;6.778;2023-01-27T12:31:29;102133.16;;;9.84;64.93
22830;BME280;11581;51.250;6.778;2023-01-27T12:33:58;102135.19;;;9.80;65.22
22830;BME280;11581;51.250;6.778;2023-01-27T12:36:27;102129.97;;;9.79;65.71
22830;BME280;11581;51.250;6.778;2023-01-27T12:38:55;102117.72;;;9.76;65.45
22830;BME280;11581;51.250;6.778;2023-01-27T12:41:26;102124.75;;;9.77;65.50
22830;BME280;11581;51.250;6.778;2023-01-27T12:43:55;102119.41;;;9.77;65.26
22830;BME280;11581;51.250;6.778;2023-01-27T12:46:27;102123.03;;;9.76;65.11
22830;BME280;11581;51.250;6.778;2023-01-27T12:49:00;102129.56;;;9.72;63.92
22830;BME280;11581;51.250;6.778;2023-01-27T12:51:37;102124.56;;;9.68;63.94
22830;BME280;11581;51.250;6.778;2023-01-27T12:54:18;102124.88;;;9.63;64.00
22830;BME280;11581;51.250;6.778;2023-01-27T12:56:46;102121.56;;;9.60;65.21
22830;BME280;11581;51.250;6.778;2023-01-27T12:59:14;102124.34;;;9.58;65.49
22830;BME280;11581;51.250;6.778;2023-01-27T13:01:44;102128.84;;;9.58;65.40
22830;BME280;11581;51.250;6.778;2023-01-27T13:04:23;102109.03;;;9.49;65.53
22830;BME280;11581;51.250;6.778;2023-01-27T13:06:54;102121.47;;;9.61;65.24
22830;BME280;11581;51.250;6.778;2023-01-27T13:09:25;102104.03;;;9.45;65.10
22830;BME280;11581;51.250;6.778;2023-01-27T13:11:54;102104.44;;;9.51;65.50
22830;BME280;11581;51.250;6.778;2023-01-27T13:14:22;102103.91;;;9.59;65.25
22830;BME280;11581;51.250;6.778;2023-01-27T13:16:51;102115.50;;;9.70;64.91
22830;BME280;11581;51.250;6.778;2023-01-27T13:19:19;102121.56;;;9.72;65.57